Time;durP1;ratioP1;P1;durP2;ratioP2;P2;SDS_P1;SDS_P2;PMS_P1;PMS_P2;Temp;Humidity;BMP_temperature;BMP_pressure;BME280_temperature;BME280_humidity;BME280_pressure;Samples;Min_cycle;Max_cycle;Signal;HPM_P1;HPM_P2
2021/03/11 00:06:13;;;;;;;1999.90;999.90;;;;;;;4.81;58.96;100688.50;15780155;28;20507;-64
2021/03/11 00:13:45;;;;;;;1999.90;999.90;;;;;;;4.73;59.16;100672.56;15784998;28;20067;-64
2021/03/11 00:21:17;;;;;;;1999.90;999.90;;;;;;;4.79;59.51;100668.59;15764314;28;20040;-64
2021/03/11 00:28:49;;;;;;;1999.90;999.90;;;;;;;4.94;59.54;100646.31;15772336;28;20048;-63
2021/03/11 00:36:21;;;;;;;1999.90;999.90;;;;;;;4.85;60.26;100637.03;15767422;28;20083;-64
2021/03/11 00:43:53;;;;;;;1999.90;999.90;;;;;;;4.70;61.42;100604.88;15763851;28;20072;-64
2021/03/11 00:51:24;;;;;;;1999.90;999.90;;;;;;;4.97;60.97;100584.88;15759079;28;20450;-64
2021/03/11 00:58:57;;;;;;;1999.90;999.90;;;;;;;4.81;61.95;100556.63;15763648;28;20418;-63
2021/03/11 01:06:28;;;;;;;1999.90;999.90;;;;;;;4.92;61.54;100526.88;15765068;28;20059;-64
2021/03/11 01:14:01;;;;;;;1999.90;999.90;;;;;;;5.02;62.00;100525.91;15766633;28;20281;-64
2021/03/11 01:21:33;;;;;;;1999.90;999.90;;;;;;;5.11;61.32;100499.22;15762314;28;20055;-64
2021/03/11 01:29:05;;;;;;;1999.90;999.90;;;;;;;5.29;61.20;100484.50;15777314;28;20046;-64
2021/03/11 01:36:37;;;;;;;1999.90;999.90;;;;;;;4.99;62.61;100468.41;15780766;28;20048;-64
2021/03/11 01:44:09;;;;;;;1999.90;999.90;;;;;;;5.11;62.70;100441.94;15811659;28;20139;-63
2021/03/11 01:51:40;;;;;;;1999.90;999.90;;;;;;;5.16;61.99;100424.44;15776195;28;20079;-66
2021/03/11 01:59:13;;;;;;;1999.90;999.90;;;;;;;5.20;62.30;100414.38;15783309;28;20087;-65
2021/03/11 02:06:45;;;;;;;1999.90;999.90;;;;;;;5.24;61.86;100400.78;15779220;28;20519;-64
2021/03/11 02:14:25;;;;;;;1999.90;999.90;;;;;;;5.26;62.34;100379.97;15783581;28;20032;-64
2021/03/11 02:22:08;;;;;;;1999.90;999.90;;;;;;;5.39;61.70;100361.75;15755994;28;20493;-64
2021/03/11 02:29:42;;;;;;;1999.90;999.90;;;;;;;5.45;61.65;100346.69;15745580;28;20078;-64
2021/03/11 02:37:15;;;;;;;1999.90;999.90;;;;;;;5.44;62.00;100337.56;15765442;28;20079;-65
2021/03/11 02:44:47;;;;;;;1999.90;999.90;;;;;;;5.60;61.67;100323.41;15735250;28;20048;-62
2021/03/11 02:52:20;;;;;;;1999.90;999.90;;;;;;;5.70;61.92;100298.28;15775623;28;20102;-63
2021/03/11 02:59:54;;;;;;;1999.90;999.90;;;;;;;5.79;62.27;100290.88;15770610;28;20044;-64
2021/03/11 03:07:26;;;;;;;1999.90;999.90;;;;;;;5.73;62.43;100273.56;15753230;28;20535;-63
2021/03/11 03:14:59;;;;;;;1999.90;999.90;;;;;;;5.71;64.21;100272.22;15750371;28;20048;-65
2021/03/11 03:22:31;;;;;;;1999.90;999.90;;;;;;;5.86;63.80;100251.69;15772114;28;20070;-63
2021/03/11 03:30:07;;;;;;;1999.90;999.90;;;;;;;5.74;64.93;100236.44;15798056;28;20045;-63
2021/03/11 03:37:38;;;;;;;1999.90;999.90;;;;;;;5.58;67.42;100212.19;15783057;28;20040;-64
2021/03/11 03:45:15;;;;;;;1999.90;999.90;;;;;;;5.43;68.22;100191.22;15773517;28;20202;-64
2021/03/11 03:52:48;;;;;;;1999.90;999.90;;;;;;;5.23;70.83;100162.06;15745458;28;20091;-63
2021/03/11 04:00:22;;;;;;;1999.90;999.90;;;;;;;5.17;71.23;100146.72;15785885;28;20075;-63
2021/03/11 04:07:55;;;;;;;1999.90;999.90;;;;;;;4.96;73.53;100104.88;15788401;22;20122;-59
2021/03/11 04:15:28;;;;;;;1999.90;999.90;;;;;;;4.95;74.08;100077.53;15890749;27;20135;-55
2021/03/11 04:23:01;;;;;;;1999.90;999.90;;;;;;;4.98;75.09;100068.59;15841344;28;20036;-58
2021/03/11 04:30:34;;;;;;;1999.90;999.90;;;;;;;5.03;75.46;100052.72;15809566;28;20048;-58
2021/03/11 04:38:05;;;;;;;1999.90;999.90;;;;;;;4.92;76.59;100023.69;15817978;28;20059;-58
2021/03/11 04:45:38;;;;;;;1999.90;999.90;;;;;;;5.14;75.78;100014.59;15818153;28;20460;-57
2021/03/11 04:53:12;;;;;;;1999.90;999.90;;;;;;;5.16;75.67;99987.44;15847213;28;20044;-57
2021/03/11 05:00:47;;;;;;;1999.90;999.90;;;;;;;5.32;74.33;99969.31;15792553;28;20306;-59
2021/03/11 05:08:18;;;;;;;1999.90;999.90;;;;;;;5.26;75.62;99953.97;15789649;28;20044;-55
2021/03/11 05:15:51;;;;;;;1999.90;999.90;;;;;;;5.34;76.04;99927.50;15831485;28;20518;-56
2021/03/11 05:23:23;;;;;;;1999.90;999.90;;;;;;;5.14;76.86;99903.97;15834060;28;20036;-58
2021/03/11 05:30:55;;;;;;;1999.90;999.90;;;;;;;5.10;77.21;99891.88;15821269;28;20090;-57
2021/03/11 05:38:27;;;;;;;1999.90;999.90;;;;;;;5.10;77.59;99867.81;15793177;28;20036;-59
2021/03/11 05:46:02;;;;;;;1999.90;999.90;;;;;;;5.16;78.17;99869.31;15846070;28;20046;-55
2021/03/11 05:53:36;;;;;;;1999.90;999.90;;;;;;;5.24;78.31;99850.31;15840645;28;20486;-57
2021/03/11 06:01:09;;;;;;;1999.90;999.90;;;;;;;5.01;79.69;99830.22;15816115;28;20067;-58
2021/03/11 06:08:41;;;;;;;1999.90;999.90;;;;;;;5.12;80.20;99813.03;15825282;28;20036;-57
2021/03/11 06:16:20;;;;;;;1999.90;999.90;;;;;;;5.05;80.37;99800.78;15846179;28;20137;-59
2021/03/11 06:23:52;;;;;;;1999.90;999.90;;;;;;;5.03;81.62;99795.56;15832019;28;20247;-56
2021/03/11 06:31:26;;;;;;;1999.90;999.90;;;;;;;5.11;81.69;99764.38;15823463;28;20055;-57
2021/03/11 06:38:58;;;;;;;1999.90;999.90;;;;;;;5.10;82.98;99745.31;15793951;28;20040;-59
2021/03/11 06:46:31;;;;;;;1999.90;999.90;;;;;;;5.16;83.79;99750.41;15804888;28;20071;-59
2021/03/11 06:54:03;;;;;;;1999.90;999.90;;;;;;;5.06;84.45;99728.56;15804549;28;20040;-59
2021/03/11 07:01:47;;;;;;;1999.90;999.90;;;;;;;5.07;85.21;99702.53;15804330;28;20080;-57
2021/03/11 07:09:19;;;;;;;1999.90;999.90;;;;;;;5.41;84.55;99699.03;15805140;28;20123;-58
2021/03/11 07:16:52;;;;;;;1999.90;999.90;;;;;;;5.24;84.97;99681.63;15805703;28;20130;-57
2021/03/11 07:24:35;;;;;;;1999.90;999.90;;;;;;;5.36;85.05;99671.53;15802408;28;20044;-58
2021/03/11 07:32:08;;;;;;;1999.90;999.90;;;;;;;5.45;85.45;99691.72;15803083;28;20119;-58
2021/03/11 07:39:44;;;;;;;1999.90;999.90;;;;;;;5.73;84.19;99672.88;15802228;28;20189;-59
2021/03/11 07:47:18;;;;;;;1999.90;999.90;;;;;;;5.70;84.15;99656.91;15801363;28;20113;-60
2021/03/11 07:54:50;;;;;;;1999.90;999.90;;;;;;;5.95;83.40;99643.41;15783635;28;20590;-58
2021/03/11 08:02:23;;;;;;;1999.90;999.90;;;;;;;5.76;85.22;99627.94;15801381;28;20539;-60
2021/03/11 08:09:56;;;;;;;1999.90;999.90;;;;;;;6.11;83.90;99633.44;15782076;28;20051;-56
2021/03/11 08:17:43;;;;;;;1999.90;999.90;;;;;;;6.11;84.28;99627.88;15799603;28;20036;-58
2021/03/11 08:25:40;;;;;;;1999.90;999.90;;;;;;;6.31;83.88;99609.75;15781216;28;20040;-58
2021/03/11 08:33:14;;;;;;;1999.90;999.90;;;;;;;6.24;84.42;99606.66;15803814;28;20111;-60
2021/03/11 08:40:53;;;;;;;1999.90;999.90;;;;;;;6.35;84.04;99594.88;15792083;28;20063;-60
2021/03/11 08:48:25;;;;;;;1999.90;999.90;;;;;;;6.29;84.26;99589.88;15782289;28;20470;-60
2021/03/11 08:55:58;;;;;;;1999.90;999.90;;;;;;;6.18;85.00;99589.44;15797690;28;20044;-60
2021/03/11 09:03:39;;;;;;;1999.90;999.90;;;;;;;6.57;84.34;99568.91;15778455;28;20166;-60
2021/03/11 09:11:12;;;;;;;1999.90;999.90;;;;;;;6.35;84.89;99556.09;15796442;28;20036;-57
2021/03/11 09:18:46;;;;;;;1999.90;999.90;;;;;;;6.32;85.57;99562.31;15777988;28;20044;-61
2021/03/11 09:26:25;;;;;;;1999.90;999.90;;;;;;;6.52;85.60;99555.22;15761568;28;20048;-57
2021/03/11 09:34:02;;;;;;;1999.90;999.90;;;;;;;6.36;85.94;99535.59;15796698;28;20055;-57
2021/03/11 09:41:36;;;;;;;1999.90;999.90;;;;;;;6.67;84.78;99537.22;15796339;28;20364;-57
2021/03/11 09:49:08;;;;;;;1999.90;999.90;;;;;;;6.66;84.91;99521.69;15802919;28;20036;-60
2021/03/11 09:56:41;;;;;;;1999.90;999.90;;;;;;;6.80;85.05;99507.59;15791535;28;20105;-59
2021/03/11 10:04:15;;;;;;;1999.90;999.90;;;;;;;7.06;84.15;99487.97;15808504;28;20052;-59
2021/03/11 10:11:49;;;;;;;1999.90;999.90;;;;;;;6.99;85.11;99491.31;15821024;22;20052;-65
2021/03/11 10:19:22;;;;;;;1999.90;999.90;;;;;;;7.23;84.21;99485.88;15792771;28;20036;-62
2021/03/11 10:26:54;;;;;;;1999.90;999.90;;;;;;;7.04;84.50;99496.63;15792693;28;20565;-62
2021/03/11 10:34:28;;;;;;;1999.90;999.90;;;;;;;7.29;84.17;99475.34;15791750;28;20044;-63
2021/03/11 10:42:02;;;;;;;1999.90;999.90;;;;;;;7.52;84.23;99457.19;15791634;28;20117;-62
2021/03/11 10:49:38;;;;;;;1999.90;999.90;;;;;;;8.11;83.31;99453.19;15790447;28;20044;-62
2021/03/11 10:57:12;;;;;;;1999.90;999.90;;;;;;;10.88;75.84;99417.34;15782095;28;20131;-63
2021/03/11 11:04:44;;;;;;;1999.90;999.90;;;;;;;10.68;74.45;99405.38;15807632;28;20485;-63
2021/03/11 11:12:18;;;;;;;1999.90;999.90;;;;;;;10.22;76.77;99395.97;15809001;28;20056;-63
2021/03/11 11:19:51;;;;;;;1999.90;999.90;;;;;;;10.84;74.64;99369.06;15807898;28;20040;-62
2021/03/11 11:27:24;;;;;;;1999.90;999.90;;;;;;;11.34;71.42;99325.31;15789756;28;20139;-63
2021/03/11 11:34:56;;;;;;;1999.90;999.90;;;;;;;10.85;73.22;99306.50;15806697;28;20112;-61
2021/03/11 11:42:27;;;;;;;1999.90;999.90;;;;;;;12.56;69.94;99304.47;15806560;28;20462;-63
2021/03/11 11:50:00;;;;;;;1999.90;999.90;;;;;;;13.93;64.13;99290.63;15786956;28;20464;-62
2021/03/11 11:57:32;;;;;;;1999.90;999.90;;;;;;;14.83;61.89;99267.47;15775805;28;20044;-62
2021/03/11 12:05:06;;;;;;;1999.90;999.90;;;;;;;14.23;61.83;99268.78;15786000;28;20194;-63
2021/03/11 12:12:38;;;;;;;1999.90;999.90;;;;;;;13.95;63.00;99249.78;15803678;28;20478;-62
2021/03/11 12:20:13;;;;;;;1999.90;999.90;;;;;;;13.72;62.54;99224.81;15769033;28;20047;-63
2021/03/11 12:27:44;;;;;;;1999.90;999.90;;;;;;;14.10;61.94;99220.63;15803288;28;20051;-63
2021/03/11 12:35:17;;;;;;;1999.90;999.90;;;;;;;13.04;63.53;99198.25;15784739;28;20044;-63
2021/03/11 12:42:49;;;;;;;1999.90;999.90;;;;;;;12.62;66.38;99176.25;15803009;28;20043;-63
2021/03/11 12:50:22;;;;;;;1999.90;999.90;;;;;;;12.47;66.67;99152.09;15802667;28;20048;-64
2021/03/11 12:57:54;;;;;;;1999.90;999.90;;;;;;;12.10;66.89;99142.50;15802375;28;20052;-64
2021/03/11 13:05:27;;;;;;;1999.90;999.90;;;;;;;12.11;66.66;99130.13;15801618;28;20091;-64
2021/03/11 13:12:58;;;;;;;1999.90;999.90;;;;;;;11.99;67.20;99124.81;15783639;28;20054;-64
2021/03/11 13:20:31;;;;;;;1999.90;999.90;;;;;;;11.71;68.21;99105.66;15784775;28;20445;-64
2021/03/11 13:28:03;;;;;;;1999.90;999.90;;;;;;;11.51;69.01;99087.41;15822842;28;20101;-63
2021/03/11 13:35:36;;;;;;;1999.90;999.90;;;;;;;11.69;68.79;99060.53;15804982;28;20054;-64
2021/03/11 13:43:08;;;;;;;1999.90;999.90;;;;;;;11.87;68.57;99059.94;15787611;28;20454;-62
2021/03/11 13:50:41;;;;;;;1999.90;999.90;;;;;;;13.42;63.94;99054.09;15821973;28;20036;-64
2021/03/11 13:58:13;;;;;;;1999.90;999.90;;;;;;;12.92;64.49;99008.16;15805306;28;20045;-64
2021/03/11 14:05:45;;;;;;;1999.90;999.90;;;;;;;13.07;63.76;99020.25;15820230;28;20040;-64
2021/03/11 14:13:17;;;;;;;1999.90;999.90;;;;;;;12.87;64.32;99037.31;15819798;28;20086;-65
2021/03/11 14:20:52;;;;;;;;;;;;;;;13.41;63.00;99015.25;15802231;28;20093;-65
2021/03/11 14:28:24;;;;;;;1999.90;999.90;;;;;;;13.64;62.54;99017.75;15819846;28;19927;-64
2021/03/11 14:35:57;;;;;;;1999.90;999.90;;;;;;;14.18;60.48;99004.72;15794971;28;20048;-63
2021/03/11 14:43:28;;;;;;;1999.90;999.90;;;;;;;14.31;59.89;98973.06;15808855;28;20036;-63
2021/03/11 14:51:01;;;;;;;1999.90;999.90;;;;;;;14.36;60.10;98949.41;15807804;28;20044;-65
2021/03/11 14:58:32;;;;;;;1999.90;999.90;;;;;;;14.38;58.06;98949.78;15789431;28;20044;-63
2021/03/11 15:06:05;;;;;;;1999.90;999.90;;;;;;;14.31;57.76;98930.19;15789764;28;20413;-64
2021/03/11 15:13:37;;;;;;;1999.90;999.90;;;;;;;14.26;57.74;98919.34;15807454;28;20044;-63
2021/03/11 15:21:10;;;;;;;1999.90;999.90;;;;;;;14.27;57.50;98890.88;15772261;28;20036;-63
2021/03/11 15:28:42;;;;;;;;;;;;;;;14.29;56.27;98885.69;15788598;28;20052;-63
2021/03/11 15:36:15;;;;;;;1999.90;999.90;;;;;;;14.43;55.99;98891.28;15784715;28;20026;-63
2021/03/11 15:43:49;;;;;;;1999.90;999.90;;;;;;;14.44;56.30;98872.44;15786657;28;20048;-63
2021/03/11 15:51:25;;;;;;;1999.90;999.90;;;;;;;14.36;57.92;98852.00;15748889;28;20090;-64
2021/03/11 15:58:57;;;;;;;1999.90;999.90;;;;;;;14.06;59.18;98837.59;15771666;28;20038;-64
2021/03/11 16:06:29;;;;;;;1999.90;999.90;;;;;;;14.01;60.15;98826.81;15786630;28;20064;-63
2021/03/11 16:14:01;;;;;;;1999.90;999.90;;;;;;;13.78;61.42;98850.44;15760883;28;20075;-63
2021/03/11 16:21:34;;;;;;;1999.90;999.90;;;;;;;12.41;64.63;98976.22;15759032;28;20127;-64
2021/03/11 16:29:05;;;;;;;1999.90;999.90;;;;;;;11.90;65.57;98962.19;15786063;28;20048;-64
2021/03/11 16:36:39;;;;;;;1999.90;999.90;;;;;;;11.76;64.42;98939.66;15792002;28;20346;-65
2021/03/11 16:44:11;;;;;;;1999.90;999.90;;;;;;;11.66;63.32;98943.13;15770230;28;20041;-66
2021/03/11 16:51:44;;;;;;;1999.90;999.90;;;;;;;11.85;62.22;98962.53;15737817;28;20127;-63
2021/03/11 16:59:16;;;;;;;1999.90;999.90;;;;;;;11.71;62.12;98949.19;15748014;28;20055;-66
2021/03/11 17:06:49;;;;;;;1999.90;999.90;;;;;;;11.68;62.45;98961.13;15759022;28;20056;-65
2021/03/11 17:14:20;;;;;;;1999.90;999.90;;;;;;;11.56;64.09;98962.19;15724963;28;20153;-66
2021/03/11 17:21:52;;;;;;;1999.90;999.90;;;;;;;11.37;65.30;98961.56;15724104;28;20406;-66
2021/03/11 17:29:26;;;;;;;1999.90;999.90;;;;;;;11.30;65.80;98975.44;15705634;28;20504;-65
2021/03/11 17:36:58;;;;;;;1999.90;999.90;;;;;;;11.31;66.29;99018.94;15764996;28;20040;-65
2021/03/11 17:44:30;;;;;;;1999.90;999.90;;;;;;;11.44;65.28;99039.84;15758139;28;20048;-65
2021/03/11 17:52:02;;;;;;;1999.90;999.90;;;;;;;11.57;63.58;99047.63;15760048;28;20041;-65
2021/03/11 17:59:34;;;;;;;1999.90;999.90;;;;;;;11.71;62.00;99076.91;15773388;28;20044;-66
2021/03/11 18:07:07;;;;;;;1999.90;999.90;;;;;;;11.78;61.11;99090.97;15804682;28;20055;-65
2021/03/11 18:14:38;;;;;;;1999.90;999.90;;;;;;;12.02;60.06;99076.50;15778627;28;20104;-64
2021/03/11 18:22:11;;;;;;;1999.90;999.90;;;;;;;12.16;60.14;99114.19;15811537;28;20047;-66
2021/03/11 18:29:43;;;;;;;1999.90;999.90;;;;;;;11.60;61.83;99124.25;15738776;28;20056;-65
2021/03/11 18:37:15;;;;;;;1999.90;999.90;;;;;;;11.35;63.00;99142.63;15787317;28;20097;-65
2021/03/11 18:44:46;;;;;;;1999.90;999.90;;;;;;;10.88;64.19;99149.47;15820410;28;20063;-64
2021/03/11 18:52:19;;;;;;;1999.90;999.90;;;;;;;10.59;65.32;99171.28;15808510;28;20036;-65
2021/03/11 18:59:50;;;;;;;1999.90;999.90;;;;;;;10.59;65.56;99178.84;15771922;28;20559;-66
2021/03/11 19:07:23;;;;;;;1999.90;999.90;;;;;;;10.84;65.42;99191.28;15772989;28;20094;-63
2021/03/11 19:14:54;;;;;;;1999.90;999.90;;;;;;;10.50;67.82;99225.69;15765634;28;20051;-65
2021/03/11 19:22:27;;;;;;;1999.90;999.90;;;;;;;10.06;71.57;99237.09;15764226;28;20447;-62
2021/03/11 19:29:59;;;;;;;1999.90;999.90;;;;;;;10.07;71.38;99247.06;15765061;28;20032;-66
2021/03/11 19:37:32;;;;;;;1999.90;999.90;;;;;;;9.84;70.91;99249.75;15785915;28;20060;-63
2021/03/11 19:45:05;;;;;;;1999.90;999.90;;;;;;;9.74;71.57;99248.34;15767707;28;20055;-64
2021/03/11 19:52:38;;;;;;;1999.90;999.90;;;;;;;9.68;70.66;99237.84;15774177;28;20139;-65
2021/03/11 20:00:13;;;;;;;1999.90;999.90;;;;;;;9.56;70.87;99224.84;15757173;28;20521;-64
2021/03/11 20:07:47;;;;;;;1999.90;999.90;;;;;;;9.76;70.23;99257.13;15731067;28;20041;-65
2021/03/11 20:15:20;;;;;;;1999.90;999.90;;;;;;;9.50;70.61;99254.16;15779450;28;20036;-64
2021/03/11 20:22:54;;;;;;;1999.90;999.90;;;;;;;9.43;70.42;99243.63;15774319;28;20357;-65
2021/03/11 20:30:28;;;;;;;1999.90;999.90;;;;;;;9.16;71.23;99261.22;15754981;28;20136;-65
2021/03/11 20:38:00;;;;;;;1999.90;999.90;;;;;;;9.16;70.86;99266.81;15772890;28;20076;-64
2021/03/11 20:45:32;;;;;;;1999.90;999.90;;;;;;;9.28;69.71;99272.31;15787732;28;20131;-65
2021/03/11 20:53:04;;;;;;;1999.90;999.90;;;;;;;9.07;70.31;99286.47;15779348;28;20451;-66
2021/03/11 21:00:37;;;;;;;1999.90;999.90;;;;;;;8.91;70.74;99303.13;15729169;28;20048;-66
2021/03/11 21:08:09;;;;;;;1999.90;999.90;;;;;;;9.00;70.26;99304.94;15763271;28;20041;-65
2021/03/11 21:15:41;;;;;;;1999.90;999.90;;;;;;;9.00;69.92;99283.50;15775248;28;20416;-65
2021/03/11 21:23:15;;;;;;;1999.90;999.90;;;;;;;9.01;70.19;99339.94;15763601;28;20049;-64
2021/03/11 21:30:50;;;;;;;1999.90;999.90;;;;;;;8.96;70.32;99311.22;15741762;28;20086;-65
2021/03/11 21:38:23;;;;;;;1999.90;999.90;;;;;;;8.81;70.50;99309.22;15726440;28;20052;-64
2021/03/11 21:45:56;;;;;;;1999.90;999.90;;;;;;;8.74;70.29;99305.41;15775058;28;20497;-64
2021/03/11 21:53:29;;;;;;;1999.90;999.90;;;;;;;8.90;69.96;99317.41;15783713;28;20299;-64
2021/03/11 22:01:00;;;;;;;1999.90;999.90;;;;;;;8.88;69.53;99312.19;15742137;28;20059;-63
2021/03/11 22:08:33;;;;;;;1999.90;999.90;;;;;;;8.87;69.48;99313.38;15785906;28;20060;-68
2021/03/11 22:16:05;;;;;;;1999.90;999.90;;;;;;;8.59;69.59;99316.16;15769467;28;20036;-67
2021/03/11 22:23:38;;;;;;;1999.90;999.90;;;;;;;8.79;68.34;99311.53;15788146;28;20132;-68
2021/03/11 22:31:10;;;;;;;1999.90;999.90;;;;;;;8.68;68.41;99327.13;15778813;28;20117;-68
2021/03/11 22:38:42;;;;;;;1999.90;999.90;;;;;;;8.77;67.88;99327.78;15765007;28;20036;-68
2021/03/11 22:46:14;;;;;;;1999.90;999.90;;;;;;;8.78;67.51;99334.97;15795602;28;20141;-68
2021/03/11 22:53:46;;;;;;;1999.90;999.90;;;;;;;9.00;67.01;99341.13;15785107;28;20032;-67
2021/03/11 23:01:17;;;;;;;1999.90;999.90;;;;;;;8.82;67.66;99346.97;15751053;28;20049;-67
2021/03/11 23:08:50;;;;;;;1999.90;999.90;;;;;;;8.67;68.38;99339.41;15740528;28;20040;-68
2021/03/11 23:16:21;;;;;;;1999.90;999.90;;;;;;;8.60;69.00;99339.19;15757143;28;20452;-67
2021/03/11 23:23:53;;;;;;;1999.90;999.90;;;;;;;8.74;68.72;99345.16;15746078;28;20073;-67
2021/03/11 23:31:25;;;;;;;1999.90;999.90;;;;;;;8.62;69.72;99353.53;15749117;28;20500;-67
2021/03/11 23:38:58;;;;;;;1999.90;999.90;;;;;;;8.63;70.06;99352.38;15723823;28;20044;-68
2021/03/11 23:46:29;;;;;;;1999.90;999.90;;;;;;;8.77;69.12;99343.66;15769544;28;20079;-68
2021/03/11 23:54:02;;;;;;;1999.90;999.90;;;;;;;9.04;68.22;99378.19;15773662;28;20040;-67
